createdAt,value
2023-06-30T00:00:18.102Z,54.03
2023-06-30T00:01:18.188Z,49.37
2023-06-30T00:02:18.103Z,51.06
2023-06-30T00:03:18.170Z,49.32
2023-06-30T00:04:18.072Z,49.83
2023-06-30T00:05:18.010Z,51.98
2023-06-30T00:06:18.041Z,51.15
2023-06-30T00:07:18.061Z,50.05
2023-06-30T00:08:17.998Z,50.14
2023-06-30T00:09:18.040Z,49.51
2023-06-30T00:10:18.019Z,50.07
2023-06-30T00:11:17.980Z,49.38
2023-06-30T00:12:18.040Z,52.35
2023-06-30T00:13:17.976Z,54.11
2023-06-30T00:14:17.946Z,54.33
2023-06-30T00:15:17.948Z,54.32
2023-06-30T00:16:18.081Z,50.28
2023-06-30T00:17:17.926Z,49.28
2023-06-30T00:18:18.207Z,49.37
2023-06-30T00:19:18.170Z,49.36
2023-06-30T00:20:17.922Z,52.47
2023-06-30T00:21:17.909Z,49.38
2023-06-30T00:22:17.922Z,49.25
2023-06-30T00:23:17.880Z,49.24
2023-06-30T00:24:17.938Z,49.29
2023-06-30T00:25:17.879Z,49.28
2023-06-30T00:26:17.896Z,49.33
2023-06-30T00:27:17.840Z,52.77
2023-06-30T00:28:17.846Z,54.32
2023-06-30T00:29:17.902Z,54.20
2023-06-30T00:30:17.859Z,54.19
2023-06-30T00:31:18.033Z,49.36
2023-06-30T00:32:17.826Z,49.34
2023-06-30T00:33:18.041Z,50.16
2023-06-30T00:34:17.802Z,49.27
2023-06-30T00:35:17.920Z,49.23
2023-06-30T00:36:17.840Z,49.31
2023-06-30T00:37:17.883Z,49.26
2023-06-30T00:38:17.818Z,49.32
2023-06-30T00:39:17.766Z,49.35
2023-06-30T00:40:17.757Z,49.49
2023-06-30T00:41:17.760Z,49.38
2023-06-30T00:42:18.082Z,49.30
2023-06-30T00:43:17.765Z,49.55
2023-06-30T00:44:17.721Z,49.31
2023-06-30T00:45:17.734Z,49.43
2023-06-30T00:46:17.862Z,49.94
2023-06-30T00:47:17.724Z,52.46
2023-06-30T00:48:17.740Z,54.28
2023-06-30T00:49:17.719Z,54.28
2023-06-30T00:50:17.739Z,53.32
2023-06-30T00:51:17.834Z,50.12
2023-06-30T00:52:17.662Z,49.58
2023-06-30T00:53:17.697Z,50.07
2023-06-30T00:54:17.728Z,54.97
2023-06-30T00:55:17.638Z,57.94
2023-06-30T00:56:17.638Z,54.98
2023-06-30T00:57:17.629Z,51.22
2023-06-30T00:58:17.641Z,50.85
2023-06-30T00:59:17.669Z,51.72
2023-06-30T01:00:17.640Z,52.72
2023-06-30T01:01:17.649Z,52.45
2023-06-30T01:02:17.630Z,52.08
2023-06-30T01:03:17.805Z,50.82
2023-06-30T01:04:17.652Z,50.26
2023-06-30T01:05:17.659Z,49.95
2023-06-30T01:06:17.606Z,49.85
2023-06-30T01:07:17.614Z,52.43
2023-06-30T01:08:17.623Z,54.00
2023-06-30T01:09:17.542Z,53.84
2023-06-30T01:10:17.563Z,53.68
2023-06-30T01:11:17.535Z,49.58
2023-06-30T01:12:17.961Z,49.72
2023-06-30T01:13:17.521Z,49.40
2023-06-30T01:14:17.503Z,49.47
2023-06-30T01:15:17.522Z,50.85
2023-06-30T01:16:17.525Z,50.77
2023-06-30T01:17:17.489Z,49.50
2023-06-30T01:18:17.543Z,49.63
2023-06-30T01:19:18.595Z,49.74
2023-06-30T01:20:17.462Z,49.61
2023-06-30T01:21:17.479Z,49.67
2023-06-30T01:22:17.417Z,52.35
2023-06-30T01:23:17.420Z,53.68
2023-06-30T01:24:17.466Z,53.85
2023-06-30T01:25:17.436Z,53.69
2023-06-30T01:26:17.444Z,51.50
2023-06-30T01:27:17.404Z,49.53
2023-06-30T01:28:17.452Z,49.43
2023-06-30T01:29:17.454Z,49.55
2023-06-30T01:30:17.488Z,49.59
2023-06-30T01:31:17.416Z,49.61
2023-06-30T01:32:17.360Z,49.63
2023-06-30T01:33:17.361Z,49.69
2023-06-30T01:34:17.380Z,49.96
2023-06-30T01:35:17.373Z,50.40
2023-06-30T01:36:17.364Z,49.70
2023-06-30T01:37:17.345Z,49.70
2023-06-30T01:38:17.365Z,49.69
2023-06-30T01:39:17.352Z,49.59
2023-06-30T01:40:17.317Z,49.62
2023-06-30T01:41:17.319Z,49.64
2023-06-30T01:42:17.372Z,52.31
2023-06-30T01:43:17.289Z,54.03
2023-06-30T01:44:17.280Z,53.93
2023-06-30T01:45:17.286Z,53.84
2023-06-30T01:46:17.326Z,49.94
2023-06-30T01:47:17.267Z,49.53
2023-06-30T01:48:17.313Z,49.63
2023-06-30T01:49:17.269Z,49.79
2023-06-30T01:50:17.285Z,49.83
2023-06-30T01:51:17.231Z,49.88
2023-06-30T01:52:17.270Z,51.99
2023-06-30T01:53:17.228Z,50.96
2023-06-30T01:54:17.255Z,50.66
2023-06-30T01:55:17.235Z,50.82
2023-06-30T01:56:17.246Z,50.51
2023-06-30T01:57:17.227Z,52.50
2023-06-30T01:58:17.190Z,53.67
2023-06-30T01:59:17.215Z,53.62
2023-06-30T02:00:17.213Z,53.59
2023-06-30T02:01:17.217Z,50.39
2023-06-30T02:02:17.164Z,52.09
2023-06-30T02:03:17.241Z,49.79
2023-06-30T02:04:17.186Z,50.10
2023-06-30T02:05:17.181Z,50.80
2023-06-30T02:06:17.184Z,51.33
2023-06-30T02:07:17.170Z,50.39
2023-06-30T02:08:17.112Z,50.37
2023-06-30T02:09:17.132Z,52.76
2023-06-30T02:10:17.127Z,50.07
2023-06-30T02:11:17.102Z,50.05
2023-06-30T02:12:17.150Z,51.27
2023-06-30T02:13:17.098Z,51.17
2023-06-30T02:14:17.086Z,50.20
2023-06-30T02:15:17.072Z,49.91
2023-06-30T02:16:17.079Z,49.89
2023-06-30T02:17:17.099Z,52.84
2023-06-30T02:18:17.630Z,53.97
2023-06-30T02:19:17.039Z,54.12
2023-06-30T02:20:17.049Z,53.47
2023-06-30T02:21:17.030Z,51.91
2023-06-30T02:22:17.022Z,50.85
2023-06-30T02:23:17.025Z,51.71
2023-06-30T02:24:17.067Z,53.44
2023-06-30T02:25:16.997Z,51.62
2023-06-30T02:26:17.020Z,53.38
2023-06-30T02:27:16.981Z,52.57
2023-06-30T02:28:16.974Z,52.37
2023-06-30T02:29:17.008Z,52.17
2023-06-30T02:30:17.023Z,51.48
2023-06-30T02:31:17.027Z,51.81
2023-06-30T02:32:16.973Z,53.44
2023-06-30T02:33:16.936Z,54.67
2023-06-30T02:34:16.963Z,54.17
2023-06-30T02:35:17.002Z,53.98
2023-06-30T02:36:16.984Z,53.69
2023-06-30T02:37:16.908Z,51.39
2023-06-30T02:38:16.891Z,52.38
2023-06-30T02:39:16.931Z,50.82
2023-06-30T02:40:16.897Z,51.11
2023-06-30T02:41:16.868Z,52.68
2023-06-30T02:42:16.908Z,51.16
2023-06-30T02:43:16.861Z,50.33
2023-06-30T02:44:16.885Z,50.79
2023-06-30T02:45:16.866Z,51.86
2023-06-30T02:46:16.940Z,53.19
2023-06-30T02:47:16.867Z,54.33
2023-06-30T02:48:16.861Z,54.24
2023-06-30T02:49:16.817Z,53.92
2023-06-30T02:50:16.805Z,54.37
2023-06-30T02:51:16.802Z,50.74
2023-06-30T02:52:16.800Z,50.97
2023-06-30T02:53:16.795Z,51.35
2023-06-30T02:54:16.795Z,51.66
2023-06-30T02:55:16.765Z,53.09
2023-06-30T02:56:16.792Z,53.87
2023-06-30T02:57:16.783Z,52.60
2023-06-30T02:58:16.782Z,52.89
2023-06-30T02:59:16.768Z,51.32
2023-06-30T03:00:16.894Z,50.75
2023-06-30T03:01:16.813Z,51.98
2023-06-30T03:02:16.908Z,52.20
2023-06-30T03:03:16.756Z,51.58
2023-06-30T03:04:16.701Z,52.23
2023-06-30T03:05:16.702Z,52.58
2023-06-30T03:06:16.768Z,56.83
2023-06-30T03:07:16.736Z,57.60
2023-06-30T03:08:16.696Z,57.98
2023-06-30T03:09:16.698Z,56.98
2023-06-30T03:10:16.687Z,57.69
2023-06-30T03:11:16.641Z,55.00
2023-06-30T03:12:16.704Z,54.56
2023-06-30T03:13:16.681Z,56.14
2023-06-30T03:14:16.689Z,54.06
2023-06-30T03:15:16.632Z,54.36
2023-06-30T03:16:16.665Z,56.10
2023-06-30T03:17:16.651Z,56.38
2023-06-30T03:18:16.693Z,55.67
2023-06-30T03:19:16.649Z,55.23
2023-06-30T03:20:16.614Z,56.06
2023-06-30T03:21:16.610Z,55.35
2023-06-30T03:22:16.601Z,56.64
2023-06-30T03:23:16.572Z,57.27
2023-06-30T03:24:16.645Z,55.97
2023-06-30T03:25:16.564Z,56.69
2023-06-30T03:26:16.608Z,53.91
2023-06-30T03:27:16.533Z,53.07
2023-06-30T03:28:16.536Z,53.39
2023-06-30T03:29:16.553Z,54.78
2023-06-30T03:30:16.550Z,56.32
2023-06-30T03:31:16.541Z,55.39
2023-06-30T03:32:16.494Z,56.07
2023-06-30T03:33:16.500Z,54.85
2023-06-30T03:34:16.485Z,56.78
2023-06-30T03:35:16.566Z,55.95
2023-06-30T03:36:16.532Z,56.66
2023-06-30T03:37:16.478Z,56.68
2023-06-30T03:38:16.443Z,57.60
2023-06-30T03:39:18.143Z,57.47
2023-06-30T03:40:16.458Z,56.94
2023-06-30T03:41:16.565Z,57.54
2023-06-30T03:42:16.458Z,56.56
2023-06-30T03:43:16.419Z,56.39
2023-06-30T03:44:16.617Z,55.59
2023-06-30T03:45:16.396Z,54.99
2023-06-30T03:46:16.492Z,55.25
2023-06-30T03:47:16.443Z,56.57
2023-06-30T03:48:16.399Z,54.44
2023-06-30T03:49:16.570Z,56.70
2023-06-30T03:50:16.353Z,55.86
2023-06-30T03:51:16.412Z,54.60
2023-06-30T03:52:16.381Z,54.52
2023-06-30T03:53:16.344Z,56.73
2023-06-30T03:54:16.505Z,55.69
2023-06-30T03:55:16.361Z,56.00
2023-06-30T03:56:16.354Z,56.03
2023-06-30T03:57:16.304Z,56.51
2023-06-30T03:58:16.338Z,54.36
2023-06-30T03:59:16.313Z,55.35
2023-06-30T04:00:16.347Z,55.49
2023-06-30T04:01:16.326Z,58.16
2023-06-30T04:02:16.301Z,55.24
2023-06-30T04:03:16.443Z,55.18
2023-06-30T04:04:16.412Z,55.30
2023-06-30T04:05:16.254Z,56.93
2023-06-30T04:06:16.322Z,57.14
2023-06-30T04:07:16.382Z,55.18
2023-06-30T04:08:16.455Z,57.16
2023-06-30T04:09:16.279Z,54.95
2023-06-30T04:10:16.212Z,53.64
2023-06-30T04:11:16.244Z,54.55
2023-06-30T04:12:16.250Z,54.87
2023-06-30T04:13:16.233Z,55.04
2023-06-30T04:14:16.209Z,53.83
2023-06-30T04:15:16.185Z,51.57
2023-06-30T04:16:16.206Z,51.75
2023-06-30T04:17:16.174Z,52.59
2023-06-30T04:18:16.378Z,52.61
2023-06-30T04:19:16.225Z,54.91
2023-06-30T04:20:16.155Z,54.39
2023-06-30T04:21:16.145Z,54.37
2023-06-30T04:22:16.122Z,52.96
2023-06-30T04:23:16.232Z,54.58
2023-06-30T04:24:16.163Z,54.37
2023-06-30T04:25:16.168Z,53.91
2023-06-30T04:26:16.094Z,53.16
2023-06-30T04:27:16.091Z,54.85
2023-06-30T04:28:16.107Z,55.78
2023-06-30T04:29:16.930Z,56.51
2023-06-30T04:30:16.160Z,55.41
2023-06-30T04:31:16.114Z,55.18
2023-06-30T04:32:16.053Z,54.46
2023-06-30T04:33:16.078Z,52.84
2023-06-30T04:34:16.068Z,52.04
2023-06-30T04:35:16.119Z,52.05
2023-06-30T04:36:16.108Z,54.26
2023-06-30T04:37:16.032Z,56.02
2023-06-30T04:38:16.302Z,51.97
2023-06-30T04:39:15.994Z,52.98
2023-06-30T04:40:16.016Z,54.33
2023-06-30T04:41:16.035Z,54.32
2023-06-30T04:42:16.055Z,57.85
2023-06-30T04:43:15.999Z,54.87
2023-06-30T04:44:15.982Z,56.14
2023-06-30T04:45:17.251Z,56.27
2023-06-30T04:46:15.970Z,57.83
2023-06-30T04:47:16.008Z,59.30
2023-06-30T04:48:16.000Z,58.44
2023-06-30T04:49:15.932Z,56.53
2023-06-30T04:50:15.951Z,58.46
2023-06-30T04:51:15.956Z,56.46
2023-06-30T04:52:15.911Z,55.51
2023-06-30T04:53:15.895Z,54.75
2023-06-30T04:54:16.179Z,55.95
2023-06-30T04:55:15.922Z,55.89
2023-06-30T04:56:17.308Z,55.54
2023-06-30T04:57:16.022Z,57.32
2023-06-30T04:58:16.162Z,57.29
2023-06-30T04:59:16.125Z,54.91
2023-06-30T05:00:16.218Z,55.47
2023-06-30T05:01:15.906Z,53.87
2023-06-30T05:02:15.892Z,56.23
2023-06-30T05:03:15.883Z,54.29
2023-06-30T05:04:15.877Z,53.72
2023-06-30T05:05:15.839Z,53.86
2023-06-30T05:06:15.888Z,55.76
2023-06-30T05:07:15.970Z,55.06
2023-06-30T05:08:15.900Z,56.14
2023-06-30T05:09:15.798Z,53.95
2023-06-30T05:10:15.973Z,55.72
2023-06-30T05:11:15.807Z,58.15
2023-06-30T05:12:15.814Z,54.95
2023-06-30T05:13:15.814Z,56.39
2023-06-30T05:14:15.844Z,57.88
2023-06-30T05:15:15.757Z,55.59
2023-06-30T05:16:15.889Z,57.86
2023-06-30T05:17:16.022Z,52.50
2023-06-30T05:18:15.828Z,56.22
2023-06-30T05:19:15.708Z,55.34
2023-06-30T05:20:15.756Z,55.17
2023-06-30T05:21:15.717Z,54.61
2023-06-30T05:22:15.797Z,54.13
2023-06-30T05:23:15.715Z,52.71
2023-06-30T05:24:15.757Z,53.15
2023-06-30T05:25:15.697Z,54.47
2023-06-30T05:26:15.724Z,54.27
2023-06-30T05:27:15.730Z,53.72
2023-06-30T05:28:15.694Z,52.83
2023-06-30T05:29:15.702Z,56.12
2023-06-30T05:30:15.822Z,56.53
2023-06-30T05:31:15.760Z,59.06
2023-06-30T05:32:15.640Z,57.54
2023-06-30T05:33:15.696Z,58.38
2023-06-30T05:34:15.616Z,58.00
2023-06-30T05:35:15.829Z,57.05
2023-06-30T05:36:15.768Z,55.76
2023-06-30T05:37:15.582Z,55.69
2023-06-30T05:38:15.634Z,56.67
2023-06-30T05:39:15.615Z,56.58
2023-06-30T05:40:15.542Z,55.77
2023-06-30T05:41:15.550Z,54.87
2023-06-30T05:42:15.573Z,58.21
2023-06-30T05:43:15.531Z,54.83
2023-06-30T05:44:15.561Z,55.01
2023-06-30T05:45:15.533Z,55.76
2023-06-30T05:46:15.559Z,55.15
2023-06-30T05:47:15.492Z,55.98
2023-06-30T05:48:15.535Z,53.36
2023-06-30T05:49:15.498Z,57.95
2023-06-30T05:50:15.511Z,56.92
2023-06-30T05:51:15.485Z,58.19
2023-06-30T05:52:15.483Z,58.23
2023-06-30T05:53:15.451Z,58.00
2023-06-30T05:54:15.499Z,59.65
2023-06-30T05:55:15.437Z,57.54
2023-06-30T05:56:15.428Z,55.99
2023-06-30T05:57:15.472Z,56.27
2023-06-30T05:58:15.448Z,58.33
2023-06-30T05:59:15.435Z,57.76
2023-06-30T06:00:15.446Z,57.06
2023-06-30T06:01:15.411Z,56.10
2023-06-30T06:02:15.429Z,55.99
2023-06-30T06:03:15.554Z,56.12
2023-06-30T06:04:15.468Z,55.52
2023-06-30T06:05:15.498Z,56.14
2023-06-30T06:06:15.400Z,54.57
2023-06-30T06:07:15.401Z,57.70
2023-06-30T06:08:15.358Z,57.73
2023-06-30T06:09:15.352Z,56.96
2023-06-30T06:10:16.333Z,57.46
2023-06-30T06:11:15.322Z,54.76
2023-06-30T06:12:15.381Z,57.57
2023-06-30T06:13:15.369Z,56.08
2023-06-30T06:14:15.328Z,56.94
2023-06-30T06:15:15.288Z,55.90
2023-06-30T06:16:15.315Z,54.22
2023-06-30T06:17:15.312Z,56.76
2023-06-30T06:18:15.330Z,56.35
2023-06-30T06:19:15.292Z,57.83
2023-06-30T06:20:15.292Z,55.82
2023-06-30T06:21:15.247Z,54.66
2023-06-30T06:22:15.242Z,55.40
2023-06-30T06:23:15.236Z,56.17
2023-06-30T06:24:15.271Z,57.58
2023-06-30T06:25:15.280Z,58.62
2023-06-30T06:26:15.220Z,56.90
2023-06-30T06:27:15.224Z,57.03
2023-06-30T06:28:15.224Z,55.75
2023-06-30T06:29:15.199Z,58.21
2023-06-30T06:30:15.242Z,54.47
2023-06-30T06:31:15.235Z,54.63
2023-06-30T06:32:15.167Z,56.21
2023-06-30T06:33:15.187Z,56.23
2023-06-30T06:34:15.164Z,57.51
2023-06-30T06:35:15.201Z,53.87
2023-06-30T06:36:15.173Z,55.66
2023-06-30T06:37:15.140Z,57.13
2023-06-30T06:38:15.155Z,56.08
2023-06-30T06:39:15.127Z,56.26
2023-06-30T06:40:15.137Z,53.01
2023-06-30T06:41:15.111Z,55.21
2023-06-30T06:42:15.128Z,58.65
2023-06-30T06:43:15.075Z,59.06
2023-06-30T06:44:15.096Z,59.51
2023-06-30T06:45:15.072Z,58.81
2023-06-30T06:46:15.093Z,58.06
2023-06-30T06:47:15.127Z,55.58
2023-06-30T06:48:15.098Z,57.04
2023-06-30T06:49:15.072Z,57.30
2023-06-30T06:50:15.034Z,57.00
2023-06-30T06:51:15.070Z,56.50
2023-06-30T06:52:15.036Z,56.08
2023-06-30T06:53:15.010Z,55.61
2023-06-30T06:54:15.072Z,56.25
2023-06-30T06:55:15.010Z,58.35
2023-06-30T06:56:15.010Z,56.52
2023-06-30T06:57:14.990Z,55.28
2023-06-30T06:58:14.984Z,57.30
2023-06-30T06:59:14.982Z,56.18
2023-06-30T07:00:15.033Z,56.58
2023-06-30T07:01:15.000Z,62.50
2023-06-30T07:02:14.964Z,59.08
2023-06-30T07:03:15.013Z,57.86
2023-06-30T07:04:15.062Z,61.05
2023-06-30T07:05:14.956Z,58.76
2023-06-30T07:06:14.966Z,55.44
2023-06-30T07:07:15.033Z,54.68
2023-06-30T07:08:14.928Z,54.38
2023-06-30T07:09:14.968Z,56.30
2023-06-30T07:10:14.902Z,56.88
2023-06-30T07:11:14.902Z,57.92
2023-06-30T07:12:14.908Z,56.83
2023-06-30T07:13:14.871Z,57.16
2023-06-30T07:14:14.902Z,56.19
2023-06-30T07:15:14.847Z,58.00
2023-06-30T07:16:14.886Z,56.31
2023-06-30T07:17:14.825Z,58.88
2023-06-30T07:18:14.950Z,59.21
2023-06-30T07:19:14.835Z,56.83
2023-06-30T07:20:14.845Z,56.15
2023-06-30T07:21:14.829Z,57.76
2023-06-30T07:22:14.798Z,57.03
2023-06-30T07:23:14.808Z,58.82
2023-06-30T07:24:14.829Z,55.74
2023-06-30T07:25:14.816Z,56.85
2023-06-30T07:26:14.778Z,58.80
2023-06-30T07:27:14.838Z,56.84
2023-06-30T07:28:14.753Z,57.30
2023-06-30T07:29:14.771Z,55.50
2023-06-30T07:30:14.815Z,56.30
2023-06-30T07:31:14.796Z,56.91
2023-06-30T07:32:17.390Z,58.76
2023-06-30T07:33:14.750Z,57.66
2023-06-30T07:34:14.732Z,57.85
2023-06-30T07:35:14.720Z,58.71
2023-06-30T07:36:14.786Z,59.41
2023-06-30T07:37:14.721Z,58.16
2023-06-30T07:38:14.751Z,56.89
2023-06-30T07:39:14.675Z,60.24
2023-06-30T07:40:16.918Z,57.79
2023-06-30T07:41:14.667Z,54.57
2023-06-30T07:42:14.721Z,56.80
2023-06-30T07:43:14.665Z,56.43
2023-06-30T07:44:14.664Z,55.90
2023-06-30T07:45:14.655Z,54.92
2023-06-30T07:46:14.683Z,57.42
2023-06-30T07:47:14.653Z,57.88
2023-06-30T07:48:14.795Z,58.72
2023-06-30T07:49:14.670Z,56.87
2023-06-30T07:50:14.621Z,57.23
2023-06-30T07:51:14.599Z,58.51
2023-06-30T07:52:14.619Z,59.92
2023-06-30T07:53:14.582Z,61.57
2023-06-30T07:54:14.629Z,60.19
2023-06-30T07:55:14.616Z,61.16
2023-06-30T07:56:14.608Z,63.39
2023-06-30T07:57:14.573Z,59.88
2023-06-30T07:58:14.555Z,59.48
2023-06-30T07:59:14.578Z,56.94
2023-06-30T08:00:14.565Z,58.61
2023-06-30T08:01:14.542Z,58.29
2023-06-30T08:02:14.576Z,57.73
2023-06-30T08:03:14.697Z,56.88
2023-06-30T08:04:14.670Z,59.97
2023-06-30T08:05:14.646Z,57.51
2023-06-30T08:06:14.694Z,57.97
2023-06-30T08:07:14.564Z,59.58
2023-06-30T08:08:14.483Z,67.11
2023-06-30T08:09:14.521Z,70.32
2023-06-30T08:10:14.468Z,72.19
2023-06-30T08:11:14.489Z,67.55
2023-06-30T08:12:14.527Z,65.55
2023-06-30T08:13:14.480Z,64.79
2023-06-30T08:14:14.456Z,60.32
2023-06-30T08:15:14.459Z,58.86
2023-06-30T08:16:14.454Z,58.71
2023-06-30T08:17:14.437Z,58.45
2023-06-30T08:18:15.555Z,59.81
2023-06-30T08:19:22.162Z,60.91
2023-06-30T08:20:15.525Z,62.89
2023-06-30T08:21:14.424Z,64.54
2023-06-30T08:22:14.396Z,62.66
2023-06-30T08:23:14.393Z,61.46
2023-06-30T08:24:14.457Z,58.29
2023-06-30T08:25:14.453Z,61.87
2023-06-30T08:26:14.363Z,63.22
2023-06-30T08:27:14.446Z,65.92
2023-06-30T08:28:14.356Z,67.28
2023-06-30T08:29:14.365Z,63.06
2023-06-30T08:30:14.416Z,61.08
2023-06-30T08:31:14.406Z,57.62
2023-06-30T08:32:14.336Z,59.18
2023-06-30T08:33:20.376Z,57.67
2023-06-30T08:34:15.331Z,61.09
2023-06-30T08:35:14.473Z,58.78
2023-06-30T08:36:14.355Z,58.94
2023-06-30T08:37:14.374Z,57.96
2023-06-30T08:38:14.311Z,58.49
2023-06-30T08:39:14.266Z,58.27
2023-06-30T08:40:14.409Z,58.07
2023-06-30T08:41:14.326Z,61.64
2023-06-30T08:42:14.314Z,56.25
2023-06-30T08:43:15.427Z,60.36
2023-06-30T08:44:14.235Z,58.69
2023-06-30T08:45:14.418Z,57.07
2023-06-30T08:46:14.285Z,57.72
2023-06-30T08:47:14.234Z,56.17
2023-06-30T08:48:14.254Z,54.57
2023-06-30T08:49:14.217Z,57.32
2023-06-30T08:50:14.202Z,57.25
2023-06-30T08:51:16.426Z,58.86
2023-06-30T08:52:14.203Z,58.69
2023-06-30T08:53:14.227Z,59.30
2023-06-30T08:54:14.225Z,58.68
2023-06-30T08:55:14.155Z,59.01
2023-06-30T08:56:14.199Z,58.46
2023-06-30T08:57:14.144Z,55.79
2023-06-30T08:58:24.848Z,56.24
2023-06-30T08:59:15.199Z,59.15
2023-06-30T09:00:14.141Z,57.16
2023-06-30T09:01:14.189Z,56.35
2023-06-30T09:02:14.160Z,56.93
2023-06-30T09:03:14.197Z,56.63
2023-06-30T09:04:14.166Z,57.60
2023-06-30T09:05:14.249Z,57.69
2023-06-30T09:06:14.099Z,58.86
2023-06-30T09:07:14.173Z,56.15
2023-06-30T09:08:14.089Z,57.55
2023-06-30T09:09:14.108Z,59.39
2023-06-30T09:10:14.183Z,58.60
2023-06-30T09:11:14.105Z,57.63
2023-06-30T09:12:14.076Z,55.56
2023-06-30T09:13:14.017Z,58.27
2023-06-30T09:14:14.037Z,58.98
2023-06-30T09:15:14.058Z,58.68
2023-06-30T09:16:18.936Z,57.22
2023-06-30T09:17:15.068Z,57.64
2023-06-30T09:18:14.023Z,58.41
2023-06-30T09:19:14.021Z,58.09
2023-06-30T09:20:14.012Z,56.13
2023-06-30T09:21:13.978Z,57.73
2023-06-30T09:22:53.686Z,58.12
2023-06-30T09:23:15.013Z,56.67
2023-06-30T09:24:13.982Z,55.68
2023-06-30T09:25:13.997Z,56.68
2023-06-30T09:26:13.992Z,57.94
2023-06-30T09:27:13.936Z,57.56
2023-06-30T09:28:13.945Z,56.97
2023-06-30T09:29:14.005Z,58.25
2023-06-30T09:30:13.899Z,56.35
2023-06-30T09:31:13.945Z,57.58
2023-06-30T09:32:13.979Z,57.98
2023-06-30T09:33:13.927Z,57.79
2023-06-30T09:34:13.905Z,58.07
2023-06-30T09:35:13.932Z,59.58
2023-06-30T09:36:13.877Z,57.65
2023-06-30T09:37:13.882Z,56.42
2023-06-30T09:38:13.908Z,58.24
2023-06-30T09:39:13.853Z,58.34
2023-06-30T09:40:13.855Z,59.50
2023-06-30T09:41:13.880Z,57.41
2023-06-30T09:42:13.831Z,55.93
2023-06-30T09:43:13.806Z,56.75
2023-06-30T09:44:13.813Z,56.43
2023-06-30T09:45:13.821Z,56.47
2023-06-30T09:46:13.845Z,56.97
2023-06-30T09:47:14.034Z,59.48
2023-06-30T09:48:13.789Z,58.23
2023-06-30T09:49:13.825Z,58.87
2023-06-30T09:50:13.861Z,57.61
2023-06-30T09:51:13.781Z,58.24
2023-06-30T09:52:13.756Z,57.52
2023-06-30T09:53:13.784Z,57.85
2023-06-30T09:54:13.737Z,56.83
2023-06-30T09:55:13.749Z,57.13
2023-06-30T09:56:13.739Z,57.61
2023-06-30T09:57:13.784Z,55.90
2023-06-30T09:58:13.723Z,56.05
2023-06-30T09:59:13.757Z,57.63
2023-06-30T10:00:25.498Z,57.03
2023-06-30T10:01:14.707Z,59.66
2023-06-30T10:02:13.675Z,59.92
2023-06-30T10:03:13.765Z,60.65
2023-06-30T10:04:15.112Z,59.24
2023-06-30T10:05:13.721Z,57.40
2023-06-30T10:06:13.671Z,57.73
2023-06-30T10:07:13.711Z,56.13
2023-06-30T10:08:13.646Z,57.28
2023-06-30T10:09:13.636Z,58.07
2023-06-30T10:10:13.638Z,58.48
2023-06-30T10:11:13.744Z,57.29
2023-06-30T10:12:13.621Z,57.68
2023-06-30T10:13:13.634Z,56.27
2023-06-30T10:14:13.594Z,56.80
2023-06-30T10:15:13.582Z,56.49
2023-06-30T10:16:13.649Z,56.63
2023-06-30T10:17:13.641Z,57.85
2023-06-30T10:18:13.704Z,58.43
2023-06-30T10:19:13.557Z,58.84
2023-06-30T10:20:13.569Z,58.57
2023-06-30T10:21:13.507Z,56.65
2023-06-30T10:22:13.534Z,56.06
2023-06-30T10:23:13.615Z,60.23
2023-06-30T10:24:13.543Z,57.32
2023-06-30T10:25:16.622Z,57.39
2023-06-30T10:26:13.654Z,57.57
2023-06-30T10:27:13.593Z,58.11
2023-06-30T10:28:13.497Z,57.85
2023-06-30T10:29:13.514Z,56.38
2023-06-30T10:30:13.513Z,57.59
2023-06-30T10:31:13.450Z,56.13
2023-06-30T10:32:13.506Z,56.57
2023-06-30T10:33:13.551Z,56.92
2023-06-30T10:34:13.450Z,57.06
2023-06-30T10:35:13.569Z,58.67
2023-06-30T10:36:13.449Z,56.18
2023-06-30T10:37:13.407Z,56.85
2023-06-30T10:38:13.430Z,57.50
2023-06-30T10:39:13.406Z,58.07
2023-06-30T10:40:13.404Z,59.27
2023-06-30T10:41:13.500Z,57.69
2023-06-30T10:42:13.443Z,58.22
2023-06-30T10:43:13.369Z,56.89
2023-06-30T10:44:13.399Z,57.26
2023-06-30T10:45:13.378Z,55.87
2023-06-30T10:46:13.376Z,55.81
2023-06-30T10:47:13.434Z,59.35
2023-06-30T10:48:13.386Z,58.33
2023-06-30T10:49:13.330Z,58.70
2023-06-30T10:50:13.332Z,57.00
2023-06-30T10:51:13.325Z,57.60
2023-06-30T10:52:13.323Z,56.37
2023-06-30T10:53:13.332Z,57.45
2023-06-30T10:54:13.309Z,56.80
2023-06-30T10:55:13.351Z,55.99
2023-06-30T10:56:13.288Z,56.66
2023-06-30T10:57:13.287Z,54.55
2023-06-30T10:58:13.271Z,54.94
2023-06-30T10:59:13.290Z,54.72
2023-06-30T11:00:13.339Z,55.74
2023-06-30T11:01:13.269Z,57.15
2023-06-30T11:02:13.243Z,55.49
2023-06-30T11:03:13.449Z,53.76
2023-06-30T11:04:13.397Z,55.45
2023-06-30T11:05:13.271Z,58.29
2023-06-30T11:06:13.236Z,56.74
2023-06-30T11:07:13.219Z,57.26
2023-06-30T11:08:13.189Z,56.33
2023-06-30T11:09:13.194Z,57.47
2023-06-30T11:10:13.311Z,55.85
2023-06-30T11:11:13.271Z,54.35
2023-06-30T11:12:13.251Z,55.45
2023-06-30T11:13:13.159Z,56.90
2023-06-30T11:14:13.176Z,54.93
2023-06-30T11:15:13.141Z,51.88
2023-06-30T11:16:13.166Z,53.26
2023-06-30T11:17:13.207Z,54.51
2023-06-30T11:18:13.298Z,54.31
2023-06-30T11:19:13.173Z,54.51
2023-06-30T11:20:13.259Z,55.45
2023-06-30T11:21:13.112Z,55.92
2023-06-30T11:22:13.073Z,57.05
2023-06-30T11:23:13.145Z,57.42
2023-06-30T11:24:14.190Z,57.41
2023-06-30T11:25:13.118Z,56.41
2023-06-30T11:26:13.268Z,56.75
2023-06-30T11:27:13.089Z,55.69
2023-06-30T11:28:13.157Z,57.23
2023-06-30T11:29:13.291Z,57.03
2023-06-30T11:30:13.117Z,55.84
2023-06-30T11:31:13.418Z,56.19
2023-06-30T11:32:13.042Z,58.32
2023-06-30T11:33:13.050Z,57.82
2023-06-30T11:34:13.037Z,57.79
2023-06-30T11:35:13.128Z,54.46
2023-06-30T11:36:13.069Z,57.85
2023-06-30T11:37:13.069Z,57.78
2023-06-30T11:38:13.053Z,58.23
2023-06-30T11:39:12.985Z,60.22
2023-06-30T11:40:13.032Z,58.50
2023-06-30T11:41:16.153Z,55.41
2023-06-30T11:42:14.029Z,56.19
2023-06-30T11:43:12.983Z,54.96
2023-06-30T11:44:13.009Z,54.15
2023-06-30T11:45:12.989Z,53.65
2023-06-30T11:46:12.922Z,55.86
2023-06-30T11:47:13.327Z,56.12
2023-06-30T11:48:12.901Z,57.04
2023-06-30T11:49:12.975Z,58.68
2023-06-30T11:50:12.906Z,56.89
2023-06-30T11:51:12.921Z,56.21
2023-06-30T11:52:12.881Z,57.55
2023-06-30T11:53:12.964Z,55.50
2023-06-30T11:54:12.852Z,54.89
2023-06-30T11:55:12.905Z,55.53
2023-06-30T11:56:12.873Z,55.70
2023-06-30T11:57:12.915Z,56.66
2023-06-30T11:58:12.940Z,57.61
2023-06-30T11:59:12.888Z,57.93
2023-06-30T12:00:12.843Z,57.38
2023-06-30T12:01:12.832Z,56.55
2023-06-30T12:02:12.938Z,53.97
2023-06-30T12:03:12.855Z,55.84
2023-06-30T12:04:12.830Z,55.78
2023-06-30T12:05:12.870Z,54.22
2023-06-30T12:06:12.767Z,56.88
2023-06-30T12:07:12.801Z,58.81
2023-06-30T12:08:12.764Z,53.95
2023-06-30T12:09:12.747Z,55.76
2023-06-30T12:10:12.784Z,55.30
2023-06-30T12:11:12.774Z,55.02
2023-06-30T12:12:12.754Z,56.67
2023-06-30T12:13:12.735Z,55.80
2023-06-30T12:14:12.715Z,57.30
2023-06-30T12:15:12.719Z,56.81
2023-06-30T12:16:12.797Z,56.28
2023-06-30T12:17:12.727Z,54.94
2023-06-30T12:18:12.671Z,58.26
2023-06-30T12:19:12.683Z,55.38
2023-06-30T12:20:12.709Z,55.86
2023-06-30T12:21:12.688Z,54.31
2023-06-30T12:22:12.668Z,53.83
2023-06-30T12:23:12.738Z,54.91
2023-06-30T12:24:12.630Z,54.50
2023-06-30T12:25:12.647Z,55.01
2023-06-30T12:26:12.646Z,55.24
2023-06-30T12:27:12.608Z,55.73
2023-06-30T12:28:12.609Z,54.94
2023-06-30T12:29:12.636Z,56.02
2023-06-30T12:30:12.596Z,57.83
2023-06-30T12:31:12.727Z,55.61
2023-06-30T12:32:12.665Z,53.33
2023-06-30T12:33:12.554Z,57.66
2023-06-30T12:34:12.579Z,56.07
2023-06-30T12:35:12.642Z,56.47
2023-06-30T12:36:12.546Z,53.57
2023-06-30T12:37:12.567Z,54.12
2023-06-30T12:38:12.553Z,52.46
2023-06-30T12:39:12.494Z,53.38
2023-06-30T12:40:12.521Z,54.84
2023-06-30T12:41:12.598Z,55.32
2023-06-30T12:42:12.510Z,55.46
2023-06-30T12:43:12.509Z,56.34
2023-06-30T12:44:12.596Z,58.11
2023-06-30T12:45:12.497Z,58.61
2023-06-30T12:46:12.520Z,56.29
2023-06-30T12:47:12.615Z,54.70
2023-06-30T12:48:12.502Z,55.56
2023-06-30T12:49:12.499Z,55.52
2023-06-30T12:50:12.452Z,54.85
2023-06-30T12:51:12.496Z,54.74
2023-06-30T12:52:12.438Z,55.52